NERRS METEOROLOGICAL SITE ON SAPELO ISL HADS current weather conditions

sailwx.info

Wind from 207 at 8 knots gusting 11

Air temperature 28.3° C
Dewpoint 26.1° C

Last reported at 2020-Jul-11 05:00 UTC.
Time now 2020-Jul-11 05:50 UTC

Location: N 31°25' W 081°18'.
View on Google Maps.

See reports from other nearby stations

  
Tides and Currents Weather Stations Pressure Air Temp Water Temp Dewpoint Dewpoint Depression Visibility Wind Speed Wind Dir Waves Ship Positions
date/time (UTC)wind fromknots sea level pressurealtimeterstation pressurevisibilityair tempwater tempwave heightnotes
2020-Jul-11 05:00 207 8 gusting 11 28.3
2020-Jul-11 04:00 193 6 gusting 10 28.4
2020-Jul-11 03:00 189 8 gusting 12 28.6
2020-Jul-11 02:00 179 6 gusting 10 29.0
2020-Jul-11 01:00 163 6 gusting 9 29.2
2020-Jul-11 00:00 161 6 gusting 11 30.5
2020-Jul-10 23:00 164 9 gusting 13 31.6
2020-Jul-10 22:00 166 7 gusting 12 32.7
2020-Jul-10 21:00 163 7 gusting 10 33.5
2020-Jul-10 20:00 132 5 gusting 9 33.0
2020-Jul-10 19:00 139 5 gusting 9 31.8
2020-Jul-10 18:00 246 1 gusting 4 33.8
2020-Jul-10 17:00 284 3 gusting 6 32.5
2020-Jul-10 16:00 344 4 gusting 10 32.5
2020-Jul-10 15:00 003 5 gusting 8 32.8
2020-Jul-10 14:00 004 5 gusting 8 31.5
2020-Jul-10 13:00 348 5 gusting 7 29.6
2020-Jul-10 12:00 322 5 gusting 7 26.8
2020-Jul-10 11:00 25.8
2020-Jul-10 10:00 25.7
2020-Jul-10 09:00 25.9
2020-Jul-10 08:00 290 3 gusting 5 25.9
2020-Jul-10 07:00 290 4 gusting 8 26.1
2020-Jul-10 06:00 288 3 gusting 5 26.5
2020-Jul-10 05:00 256 7 gusting 9 26.9
2020-Jul-10 04:00 246 5 gusting 8 27.0
2020-Jul-10 03:00 264 4 gusting 6 27.3
2020-Jul-10 02:00 230 7 gusting 8 27.6
2020-Jul-10 01:00 222 5 gusting 6 28.2
2020-Jul-10 00:00 141 2 gusting 4 27.5
2020-Jul-09 23:00 116 1 gusting 4 27.9
2020-Jul-09 22:00 100 5 gusting 9 28.3
2020-Jul-09 21:00 277 3 gusting 6 30.2
2020-Jul-09 20:00 070 5 gusting 8 29.4
2020-Jul-09 19:00 170 6 gusting 11 32.6
2020-Jul-09 18:00 184 6 gusting 9 32.2
2020-Jul-09 17:00 293 1 gusting 4 32.3
2020-Jul-09 16:00 302 4 gusting 8 31.2
2020-Jul-09 15:00 301 4 gusting 7 30.5
2020-Jul-09 14:00 312 4 gusting 6 28.9
2020-Jul-09 13:00 316 4 gusting 6 28.2
2020-Jul-09 12:00 307 5 gusting 7 26.1
2020-Jul-09 11:00 297 4 gusting 7 25.3
2020-Jul-09 10:00 293 4 gusting 7 25.2
2020-Jul-09 09:00 296 4 gusting 6 25.3
2020-Jul-09 08:00 288 4 gusting 6 25.5
2020-Jul-09 07:00 279 5 gusting 7 25.9
2020-Jul-09 06:00 288 4 gusting 8 26.3
2020-Jul-09 05:00 274 7 gusting 10 26.6